ADDS METAR Data INFO
IDs: Format: Raw Decoded Include TAF

Data at: 0212 UTC 14 Dec 2017

KGFL 140153Z AUTO 29006KT 10SM CLR M09/M15 A2954 RMK AO2 SLP016 T10941150
KGFL 140053Z AUTO 30005KT 10SM FEW040 M09/M15 A2955 RMK AO2 SLP020 T10941150
KGFL 132353Z AUTO VRB03KT 10SM FEW040 M11/M15 A2955 RMK AO2 SLP019 T11061150 11061 21122 51028
KGFL 132253Z AUTO 26005KT 10SM CLR M08/M15 A2952 RMK AO2 SLP009 T10831150
KGFL 132153Z AUTO 00000KT 10SM OVC039 M08/M14 A2949 RMK AO2 SLP999 T10781144
KGFL 132053Z AUTO 26003KT 10SM SCT046 M07/M15 A2946 RMK AO2 SLP989 T10721150 51024
KGFL 131953Z AUTO 28011G19KT 10SM CLR M07/M15 A2944 RMK AO2 SLP982 T10721150
KGFL 131853Z AUTO 27007G15KT 230V300 10SM FEW040 FEW048 BKN080 M08/M15 A2943 RMK AO2 SLP977 T10781150
KGFL 131753Z AUTO 26008G20KT 10SM SCT044 BKN055 M06/M14 A2939 RMK AO2 SLP964 T10611139 11061 21100 53001
KGFL 131653Z AUTO 27006G16KT 10SM FEW044 M08/M15 A2939 RMK AO2 SLP962 T10781150
KGFL 131553Z AUTO 26010KT 10SM FEW041 OVC100 M08/M14 A2939 RMK AO2 SLP962 T10781144
KGFL 131453Z AUTO 29008KT 10SM OVC038 M08/M14 A2939 RMK AO2 SLP963 T10831144 53009
KGFL 131353Z AUTO 26007KT 10SM BKN038 M09/M14 A2937 RMK AO2 SLP957 T10891144
KGFL 131253Z AUTO 25004KT 10SM FEW080 M09/M14 A2937 RMK AO2 SLP954 T10941144
KGFL 131153Z AUTO 26007KT 10SM OVC085 M09/M14 A2936 RMK AO2 SLP953 70023 T10941139 11061 21094 58007
KGFL 131053Z AUTO 23006KT 10SM BKN075 OVC090 M09/M13 A2937 RMK AO2 SLP957 T10891133
KGFL 130953Z AUTO 24004KT 10SM OVC070 M08/M13 A2938 RMK AO2 SLP958 T10831128
KGFL 130853Z AUTO 22006KT 10SM FEW060 OVC075 M08/M12 A2939 RMK AO2 SLP960 T10781122 56002
KGFL 130753Z AUTO 25007KT 10SM OVC046 M07/M12 A2939 RMK AO2 SLP963 T10721117
KGFL 130653Z AUTO 25006KT 10SM BKN055 OVC070 M07/M11 A2938 RMK AO2 SLP958 T10721106
KGFL 130553Z AUTO 24008KT 10SM OVC035 M06/M10 A2939 RMK AO2 SLP962 60000 T10611100 10006 21061 55005
KGFL 130453Z AUTO 25008KT 10SM BKN034 OVC041 M05/M09 A2938 RMK AO2 SLP957 T10501089 400061056
KGFL 130353Z AUTO 24010KT 10SM FEW034 BKN070 OVC100 M03/M07 A2940 RMK AO2 SLP965 T10331067
KGFL 130253Z AUTO 27005KT 10SM SCT041 OVC060 M02/M06 A2941 RMK AO2 SLP967 60000 T10221061 50002
KGFL 130153Z AUTO 26005KT 10SM OVC065 M01/M06 A2942 RMK AO2 SLP971 T10111056
KGFL 130053Z AUTO 26005KT 10SM OVC065 M01/M04 A2942 RMK AO2 SNE2354 SLP970 P0000 T10061044
KGFL 122353Z AUTO 30010G19KT 7SM -SN FEW019 SCT024 OVC036 01/M02 A2940 RMK AO2 SNB45 SLP965 P0000 60005 I6001 T00061017 10006 21011 53001
KGFL 122330Z AUTO 24005KT 3SM BR SCT018 BKN028 OVC042 00/00 A2940 RMK AO2 T00000000
KGFL 122324Z AUTO 00000KT 2 1/2SM BR SCT018 SCT028 OVC042 00/00 A2940 RMK AO2 T00000000
KGFL 122316Z AUTO 22003KT 1 3/4SM BR FEW021 FEW028 OVC042 00/00 A2940 RMK AO2 T00000000
KGFL 122304Z AUTO 00000KT 2SM BR SCT002 OVC042 00/00 A2939 RMK AO2 T00000000
KGFL 122253Z AUTO 00000KT 2SM BR BKN002 BKN006 OVC041 00/00 A2939 RMK AO2 SNE30 SLP962 P0000 T00000000
KGFL 122241Z AUTO 00000KT 2SM BR BKN002 BKN007 OVC026 00/00 A2939 RMK AO2 SNE30 P0000 T00000000
KGFL 122224Z AUTO 19003KT 1 1/4SM -SN BR BKN004 BKN020 OVC025 00/00 A2939 RMK AO2 P0000 T00000000
KGFL 122203Z AUTO 00000KT 1 1/4SM -SN BR OVC005 00/00 A2939 RMK AO2 CIG 002V007 P0000 T00000000
KGFL 122153Z AUTO 00000KT 1 1/4SM -SN BR BKN003 OVC007 00/00 A2939 RMK AO2 UPB17E19B38E43FZRAB19E38B43E47SNE17B47 CIG 002V006 SLP962 P0000 I1001 T00000000
KGFL 122147Z AUTO 00000KT 1 3/4SM -SN BR BKN002 OVC007 00/00 A2939 RMK AO2 UPB17E19B38E43FZRAB19E38B43E47SNE17B47 CIG 002V006 P0000 I1001
KGFL 122133Z AUTO 00000KT 1 3/4SM -FZRA BR BKN008 OVC011 00/00 A2940 RMK AO2 UPB17E19FZRAB19SNE17 P0000 I1000 T00000000
KGFL 122119Z AUTO 12003KT 1 1/4SM -FZRA BR BKN011 OVC022 00/00 A2939 RMK AO2 UPB17E19FZRAB19SNE17 P0000 I1000 T00000000
KGFL 122112Z AUTO 00000KT 3/4SM -SN BR FEW007 BKN013 OVC022 00/00 A2939 RMK AO2 P0000 T00000000
KGFL 122103Z AUTO 09003KT 3/4SM -SN BR SCT007 BKN015 OVC020 00/00 A2940 RMK AO2 P0000 T00000000
KGFL 122053Z AUTO 00000KT 1/2SM -SN FG OVC007 00/00 A2940 RMK AO2 SLP964 P0003 60005 I3000 T00000000 56019
KGFL 122024Z AUTO 00000KT 1/2SM -SN FG BKN005 OVC009 00/00 A2940 RMK AO2 P0002 T00000000
KGFL 121953Z AUTO 00000KT 1/2SM -SN FG OVC003 00/M01 A2941 RMK AO2 UPB14E30SNE14B30 SLP968 P0000 I1000 T00001006
KGFL 121938Z AUTO 00000KT 1 1/4SM -SN BR BKN003 OVC012 00/00 A2941 RMK AO2 UPB14E30SNE14B30 P0000 I1000 T00000000
KGFL 121853Z AUTO 00000KT 1 1/4SM -SN BR FEW004 OVC013 M01/M01 A2943 RMK AO2 SLP975 P0002 T10061006
KGFL 121841Z AUTO 00000KT 1SM -SN BR SCT004 OVC013 M01/M01 A2944 RMK AO2 P0001 T10061006
KGFL 121822Z AUTO 00000KT 1/2SM SN FZFG SCT006 OVC012 M01/M01 A2944 RMK AO2 P0000 T10061011
KGFL 121808Z AUTO 00000KT 1SM -SN BR FEW008 OVC014 M01/M01 A2945 RMK AO2 P0000 T10061011
KGFL 121753Z AUTO 00000KT 1SM -SN BR BKN008 OVC013 M01/M01 A2946 RMK AO2 SLP984 P0000 60018 T10111011 11011 21039 56040
KGFL 121734Z AUTO 00000KT 1 1/4SM -SN BR OVC008 M01/M02 A2947 RMK AO2 P0000 T10111017
KGFL 121700Z AUTO 00000KT 1 1/4SM -SN BR OVC013 M01/M02 A2949 RMK AO2 P0000 T10111017
KGFL 121653Z AUTO 00000KT 1SM -SN BR SCT008 OVC015 M01/M02 A2949 RMK AO2 SLP996 P0002 T10111017
KGFL 121648Z AUTO 00000KT 1/2SM -SN FZFG SCT010 OVC015 M02/M02 A2950 RMK AO2 P0002
KGFL 121634Z AUTO 00000KT 1/2SM SN FZFG OVC008 M02/M02 A2951 RMK AO2 CIG 006V011 P0002 T10171017
KGFL 121619Z AUTO 00000KT 1 1/4SM -SN BR OVC007 M02/M02 A2952 RMK AO2 CIG 006V010 P0001 T10171022
KGFL 121609Z AUTO 00000KT 1/2SM -SN FZFG OVC007 M02/M02 A2952 RMK AO2 P0001 T10171022
KGFL 121553Z AUTO 29003KT 1/4SM SN FZFG OVC007 M02/M02 A2954 RMK AO2 SLP010 P0003 T10171022
KGFL 121501Z AUTO 00000KT 1/2SM -SN FZFG OVC007 M02/M03 A2957 RMK AO2 P0000 T10221028
KGFL 121453Z AUTO 00000KT 1/4SM -SN FZFG OVC007 M02/M03 A2958 RMK AO2 SLP025 P0006 60013 T10221028 58022